Time;durP1;ratioP1;P1;durP2;ratioP2;P2;SDS_P1;SDS_P2;PMS_P1;PMS_P2;Temp;Humidity;BMP_temperature;BMP_pressure;BME280_temperature;BME280_humidity;BME280_pressure;Samples;Min_cycle;Max_cycle;Signal;HPM_P1;HPM_P2
2022/08/15 00:01:16;;;;;;;13.20;11.70;;;20.30;99.90;;;;;;5084215;28;20048;-66
2022/08/15 00:03:46;;;;;;;13.07;11.77;;;20.20;99.90;;;;;;5090944;28;20048;-66
2022/08/15 00:06:18;;;;;;;15.02;12.20;;;20.10;99.90;;;;;;5075330;28;20032;-66
2022/08/15 00:08:55;;;;;;;13.75;12.32;;;20.00;99.90;;;;;;5086119;28;20094;-66
2022/08/15 00:11:26;;;;;;;14.65;12.98;;;20.10;99.90;;;;;;5063320;28;20102;-66
2022/08/15 00:13:57;;;;;;;13.73;12.32;;;19.90;99.90;;;;;;5081792;28;20040;-66
2022/08/15 00:16:23;;;;;;;14.80;11.65;;;19.80;99.90;;;;;;5063605;28;20449;-66
2022/08/15 00:18:49;;;;;;;13.00;11.23;;;19.80;99.90;;;;;;5066003;28;20129;-66
2022/08/15 00:21:19;;;;;;;13.90;12.35;;;19.70;99.90;;;;;;5066381;28;20049;-66
2022/08/15 00:23:44;;;;;;;13.27;11.82;;;19.60;99.90;;;;;;5074600;28;20045;-66
2022/08/15 00:26:11;;;;;;;14.30;12.45;;;19.60;99.90;;;;;;5049884;28;20061;-66
2022/08/15 00:28:37;;;;;;;15.70;12.38;;;19.60;99.90;;;;;;5080630;28;20484;-66
2022/08/15 00:31:08;;;;;;;13.20;11.90;;;19.60;99.90;;;;;;5085061;28;20436;-66
2022/08/15 00:33:34;;;;;;;13.00;11.20;;;19.60;99.90;;;;;;5084189;28;20056;-66
2022/08/15 00:36:00;;;;;;;12.02;10.77;;;19.60;99.90;;;;;;5084272;28;20045;-66
2022/08/15 00:38:29;;;;;;;14.15;12.07;;;19.60;99.90;;;;;;5085130;28;20040;-66
2022/08/15 00:43:54;;;;;;;13.13;11.38;;;19.60;99.90;;;;;;5056438;28;20055;-66
2022/08/15 00:46:20;;;;;;;12.13;10.82;;;19.50;99.90;;;;;;5061720;28;20073;-66
2022/08/15 00:48:46;;;;;;;13.18;11.57;;;19.40;99.90;;;;;;5068016;28;20130;-65
2022/08/15 00:51:59;;;;;;;12.88;10.50;;;19.30;99.90;;;;;;5065589;28;20492;-66
2022/08/15 00:54:40;;;;;;;12.43;10.05;;;19.20;99.90;;;;;;4967901;28;20231;-66
2022/08/15 00:57:13;;;;;;;11.52;10.32;;;19.10;99.90;;;;;;4959194;28;20095;-66
2022/08/15 00:59:50;;;;;;;13.82;10.80;;;19.00;99.90;;;;;;4983692;28;20118;-66
2022/08/15 01:02:18;;;;;;;14.40;10.73;;;18.90;99.90;;;;;;4973727;28;20059;-66
2022/08/15 01:04:44;;;;;;;13.02;11.57;;;19.00;99.90;;;;;;4967739;28;20470;-66
2022/08/15 01:07:10;;;;;;;13.82;11.48;;;19.10;99.90;;;;;;4961473;28;20067;-66
2022/08/15 01:09:37;;;;;;;12.40;11.10;;;19.10;99.90;;;;;;4957766;28;20059;-66
2022/08/15 01:12:16;;;;;;;16.02;12.02;;;19.10;99.90;;;;;;4982543;28;20047;-66
2022/08/15 01:14:46;;;;;;;17.10;12.80;;;19.10;99.90;;;;;;4981414;28;20059;-66
2022/08/15 01:17:13;;;;;;;16.95;13.45;;;19.10;99.90;;;;;;4957241;28;20078;-66
2022/08/15 01:19:51;;;;;;;26.52;14.98;;;19.20;99.90;;;;;;4984210;28;20051;-66
2022/08/15 01:22:32;;;;;;;17.77;12.88;;;19.30;99.90;;;;;;4983103;28;20098;-66
2022/08/15 01:25:02;;;;;;;18.38;13.23;;;19.30;99.90;;;;;;4979408;28;20039;-66
2022/08/15 01:27:51;;;;;;;18.00;12.90;;;19.40;99.90;;;;;;4996648;28;20050;-66
2022/08/15 01:30:22;;;;;;;18.92;15.05;;;19.50;99.90;;;;;;5074273;28;20049;-66
2022/08/15 01:32:48;;;;;;;18.23;13.00;;;19.50;99.90;;;;;;5082926;28;20061;-66
2022/08/15 01:35:14;;;;;;;17.40;14.13;;;19.70;99.90;;;;;;5101026;28;20044;-66
2022/08/15 01:37:41;;;;;;;14.95;13.18;;;19.70;99.90;;;;;;5104313;28;20059;-66
2022/08/15 01:40:31;;;;;;;16.20;14.32;;;19.70;99.90;;;;;;5100590;28;20043;-66
2022/08/15 01:42:57;;;;;;;15.55;13.95;;;19.80;99.90;;;;;;5076119;28;20040;-66
2022/08/15 01:45:27;;;;;;;16.60;14.88;;;19.70;99.90;;;;;;5066511;28;20040;-66
2022/08/15 01:48:09;;;;;;;15.77;14.15;;;19.80;99.90;;;;;;5084090;28;20104;-66
2022/08/15 01:50:46;;;;;;;14.68;13.07;;;19.80;99.90;;;;;;5077898;28;20500;-66
2022/08/15 01:53:18;;;;;;;14.25;12.85;;;19.80;99.90;;;;;;5080219;28;20594;-66
2022/08/15 01:55:52;;;;;;;15.85;12.50;;;19.80;99.90;;;;;;5072739;28;20052;-66
2022/08/15 01:58:19;;;;;;;16.25;13.00;;;19.80;99.90;;;;;;5101884;28;20098;-66
2022/08/15 02:00:55;;;;;;;16.35;13.70;;;19.80;99.90;;;;;;5102096;28;20051;-66
2022/08/15 02:03:33;;;;;;;18.77;14.95;;;19.90;99.90;;;;;;5079410;28;20052;-66
2022/08/15 02:06:04;;;;;;;17.27;13.82;;;19.90;99.90;;;;;;5077613;28;20045;-66
2022/08/15 02:08:30;;;;;;;17.58;14.98;;;19.90;99.90;;;;;;5082457;28;20048;-66
2022/08/15 02:10:56;;;;;;;19.17;16.35;;;19.90;99.90;;;;;;5074557;28;20055;-66
2022/08/15 02:13:23;;;;;;;16.15;13.13;;;20.00;99.90;;;;;;5082667;28;20048;-66
2022/08/15 02:15:49;;;;;;;16.17;14.48;;;20.00;99.90;;;;;;5105058;28;20052;-66
2022/08/15 02:18:14;;;;;;;16.33;14.40;;;20.10;99.90;;;;;;5082655;28;20054;-66
2022/08/15 02:20:40;;;;;;;15.75;14.05;;;20.10;99.90;;;;;;5085717;28;20059;-66
2022/08/15 02:23:06;;;;;;;18.83;14.88;;;20.10;99.90;;;;;;5103171;28;20044;-66
2022/08/15 02:25:32;;;;;;;16.40;14.18;;;20.00;99.90;;;;;;5080683;28;20045;-66
2022/08/15 02:27:58;;;;;;;17.17;15.32;;;19.90;99.90;;;;;;5077942;28;20047;-66
2022/08/15 02:30:27;;;;;;;16.13;13.60;;;19.90;99.90;;;;;;5084241;28;20045;-66
2022/08/15 02:32:52;;;;;;;16.98;15.02;;;19.90;99.90;;;;;;5065277;28;20079;-66
2022/08/15 02:35:18;;;;;;;15.85;13.70;;;19.90;99.90;;;;;;5077907;28;20061;-66
2022/08/15 02:37:45;;;;;;;21.10;17.05;;;19.80;99.90;;;;;;5059754;28;20044;-66
2022/08/15 02:40:15;;;;;;;20.67;17.20;;;19.90;99.90;;;;;;5057382;28;20049;-66
2022/08/15 02:42:42;;;;;;;21.88;16.30;;;20.10;99.90;;;;;;5065153;28;20049;-66
2022/08/15 02:45:10;;;;;;;19.55;15.95;;;20.10;99.90;;;;;;5089447;28;20096;-66
2022/08/15 02:47:37;;;;;;;15.95;14.25;;;20.00;99.90;;;;;;5069722;28;20139;-66
2022/08/15 02:50:07;;;;;;;19.63;16.02;;;19.90;99.90;;;;;;5069827;28;20052;-66
2022/08/15 02:52:38;;;;;;;19.27;16.33;;;19.80;99.90;;;;;;5069655;28;20048;-66
2022/08/15 02:55:04;;;;;;;21.17;16.23;;;19.70;99.90;;;;;;5069856;28;20047;-66
2022/08/15 02:57:33;;;;;;;18.80;16.80;;;19.50;99.90;;;;;;5089916;28;20377;-66
2022/08/15 02:59:59;;;;;;;18.00;16.00;;;19.50;99.90;;;;;;5067051;28;20048;-66
2022/08/15 03:02:26;;;;;;;18.83;16.83;;;19.40;99.90;;;;;;5068850;28;20052;-66
2022/08/15 03:04:51;;;;;;;17.90;16.00;;;19.30;99.90;;;;;;5067107;28;20065;-66
2022/08/15 03:07:17;;;;;;;17.33;15.00;;;19.30;99.90;;;;;;5067222;28;20055;-66
2022/08/15 03:09:43;;;;;;;17.88;15.60;;;19.10;99.90;;;;;;5069851;28;20044;-66
2022/08/15 03:12:13;;;;;;;18.45;16.15;;;18.90;99.90;;;;;;5063381;28;20056;-66
2022/08/15 03:14:40;;;;;;;18.08;15.15;;;18.90;99.90;;;;;;5070127;28;20040;-66
2022/08/15 03:17:08;;;;;;;19.33;17.13;;;18.90;99.90;;;;;;5086882;28;20104;-66
2022/08/15 03:19:36;;;;;;;16.30;14.60;;;18.90;99.90;;;;;;5084805;28;20032;-66
2022/08/15 03:22:03;;;;;;;17.23;14.82;;;18.80;99.90;;;;;;5070807;28;20044;-66
2022/08/15 03:24:30;;;;;;;17.75;15.25;;;18.70;99.90;;;;;;5067623;28;20102;-66
2022/08/15 03:26:56;;;;;;;18.73;15.63;;;18.60;99.90;;;;;;5066108;28;20051;-66
2022/08/15 03:29:23;;;;;;;18.38;15.07;;;18.50;99.90;;;;;;5079665;28;20040;-66
2022/08/15 03:31:51;;;;;;;16.17;14.48;;;18.40;99.90;;;;;;5062911;28;20059;-66
2022/08/15 03:34:19;;;;;;;18.25;14.88;;;18.30;99.90;;;;;;5095947;28;20051;-66
2022/08/15 03:36:46;;;;;;;15.52;13.85;;;18.30;99.90;;;;;;5090578;28;20101;-66
2022/08/15 03:39:15;;;;;;;16.15;13.98;;;18.40;99.90;;;;;;5086421;28;20049;-66
2022/08/15 03:41:43;;;;;;;16.55;14.18;;;18.30;99.90;;;;;;5064350;28;20566;-66
2022/08/15 03:44:10;;;;;;;16.98;15.18;;;18.20;99.90;;;;;;5090592;28;20056;-66
2022/08/15 03:46:36;;;;;;;16.35;13.75;;;18.00;99.90;;;;;;5091325;28;20120;-66
2022/08/15 03:49:02;;;;;;;16.08;14.48;;;18.00;99.90;;;;;;5091561;28;20079;-66
2022/08/15 03:51:28;;;;;;;17.15;13.85;;;17.90;99.90;;;;;;5109706;28;20040;-66
2022/08/15 03:53:58;;;;;;;17.13;14.13;;;17.80;99.90;;;;;;5091700;28;20074;-66
2022/08/15 03:56:29;;;;;;;20.02;15.35;;;17.70;99.90;;;;;;5064105;28;20048;-66
2022/08/15 03:58:57;;;;;;;18.65;14.77;;;17.70;99.90;;;;;;5098205;28;20530;-66
2022/08/15 04:01:29;;;;;;;16.42;14.55;;;17.70;99.90;;;;;;5069770;28;20076;-66
2022/08/15 04:03:56;;;;;;;20.17;16.10;;;17.70;99.90;;;;;;5084990;28;20044;-66
2022/08/15 04:06:24;;;;;;;19.05;16.13;;;17.70;99.90;;;;;;5076675;28;20120;-66
2022/08/15 04:08:51;;;;;;;17.08;14.77;;;17.80;99.90;;;;;;5086205;28;20133;-66
2022/08/15 04:11:20;;;;;;;15.93;14.23;;;17.80;99.90;;;;;;5084832;28;20090;-66
2022/08/15 04:13:46;;;;;;;19.45;15.18;;;17.90;99.90;;;;;;5085841;28;20127;-66
2022/08/15 04:16:13;;;;;;;17.17;15.38;;;17.90;99.90;;;;;;5075860;28;20058;-66
2022/08/15 04:18:39;;;;;;;18.35;16.35;;;17.90;99.90;;;;;;5086649;28;20040;-66
2022/08/15 04:21:08;;;;;;;18.23;16.08;;;17.90;99.90;;;;;;5084144;28;20052;-66
2022/08/15 04:23:34;;;;;;;20.27;16.33;;;18.00;99.90;;;;;;5076325;28;20044;-66
2022/08/15 04:26:01;;;;;;;21.70;18.17;;;18.10;99.90;;;;;;5085279;28;20040;-66
2022/08/15 04:28:29;;;;;;;21.88;18.35;;;18.10;99.90;;;;;;5087862;28;20040;-66
2022/08/15 04:30:55;;;;;;;21.45;17.25;;;18.20;99.90;;;;;;5083319;28;20078;-66
2022/08/15 04:33:29;;;;;;;20.17;17.10;;;18.20;99.90;;;;;;5085990;28;20060;-66
2022/08/15 04:36:09;;;;;;;22.70;17.50;;;18.10;99.90;;;;;;5086643;28;20040;-66
2022/08/15 04:38:40;;;;;;;20.02;15.70;;;18.10;99.90;;;;;;5083806;28;20055;-66
2022/08/15 04:41:07;;;;;;;19.27;16.45;;;18.10;99.90;;;;;;5103663;28;20048;-66
2022/08/15 04:43:35;;;;;;;21.70;18.48;;;18.10;99.90;;;;;;5103249;28;20451;-66
2022/08/15 04:46:01;;;;;;;19.83;15.32;;;18.10;99.90;;;;;;5105127;28;20040;-66
2022/08/15 04:48:27;;;;;;;19.77;15.60;;;18.10;99.90;;;;;;5099639;28;20044;-66
2022/08/15 04:50:56;;;;;;;19.90;16.63;;;18.10;99.90;;;;;;5074947;28;20036;-66
2022/08/15 04:53:24;;;;;;;22.13;18.17;;;18.20;99.90;;;;;;5101831;28;20046;-66
2022/08/15 04:55:55;;;;;;;24.65;20.63;;;18.30;99.90;;;;;;5102738;28;20036;-66
2022/08/15 04:58:22;;;;;;;24.65;21.30;;;18.50;99.90;;;;;;5084394;28;20044;-66
2022/08/15 05:00:58;;;;;;;28.40;23.35;;;18.70;99.90;;;;;;5087838;28;20073;-66
2022/08/15 05:03:25;;;;;;;24.10;21.25;;;18.90;99.90;;;;;;5080303;28;20043;-66
2022/08/15 05:05:57;;;;;;;26.00;22.75;;;19.00;99.90;;;;;;5081686;28;20041;-66
2022/08/15 05:08:27;;;;;;;24.80;21.45;;;19.10;99.90;;;;;;5081019;28;20451;-66
2022/08/15 05:11:00;;;;;;;27.55;21.65;;;19.10;99.90;;;;;;5081275;28;20083;-66
2022/08/15 05:13:29;;;;;;;48.72;21.58;;;19.20;99.90;;;;;;5105079;28;20040;-66
2022/08/15 05:15:55;;;;;;;23.60;21.05;;;19.30;99.90;;;;;;5104966;28;20067;-66
2022/08/15 05:18:23;;;;;;;23.90;21.40;;;19.30;99.90;;;;;;5085551;28;20044;-66
2022/08/15 05:20:49;;;;;;;28.30;24.80;;;19.30;99.90;;;;;;5104450;28;20044;-66
2022/08/15 05:23:18;;;;;;;33.35;26.25;;;19.40;99.90;;;;;;5081913;28;20099;-66
2022/08/15 05:25:49;;;;;;;28.73;25.48;;;19.50;99.90;;;;;;5072216;28;20566;-66
2022/08/15 05:28:15;;;;;;;30.92;26.13;;;19.60;99.90;;;;;;5085846;28;20078;-66
2022/08/15 05:30:41;;;;;;;32.35;26.33;;;19.60;99.90;;;;;;5085933;28;20042;-67
2022/08/15 05:33:13;;;;;;;32.00;26.42;;;19.70;99.90;;;;;;5087275;28;20063;-66
2022/08/15 05:35:42;;;;;;;35.53;27.70;;;19.70;99.90;;;;;;5104168;28;20048;-66
2022/08/15 05:38:14;;;;;;;35.70;28.02;;;19.80;99.90;;;;;;5060646;28;20044;-66
2022/08/15 05:41:00;;;;;;;35.55;30.23;;;19.80;99.90;;;;;;5098523;28;20056;-66
2022/08/15 05:44:10;;;;;;;31.30;27.50;;;19.80;99.90;;;;;;5062339;28;20051;-66
2022/08/15 05:46:41;;;;;;;30.50;24.60;;;19.90;99.90;;;;;;5059796;28;20116;-66
2022/08/15 05:49:25;;;;;;;28.70;25.25;;;19.90;99.90;;;;;;5098060;28;20123;-66
2022/08/15 05:52:14;;;;;;;24.52;21.92;;;20.00;99.90;;;;;;5076704;28;20135;-66
2022/08/15 05:55:04;;;;;;;27.58;24.67;;;20.10;99.90;;;;;;5079149;28;20118;-66
2022/08/15 05:57:36;;;;;;;27.98;22.92;;;20.20;99.90;;;;;;5075781;28;20041;-66
2022/08/15 06:00:09;;;;;;;28.27;24.92;;;20.20;99.90;;;;;;5095797;28;20032;-66
2022/08/15 06:02:41;;;;;;;28.05;24.88;;;20.30;99.90;;;;;;5097019;28;20412;-66
2022/08/15 06:05:13;;;;;;;27.77;24.83;;;20.30;99.90;;;;;;5079082;28;20044;-66
2022/08/15 06:07:47;;;;;;;27.58;22.63;;;20.30;99.90;;;;;;5077263;28;20043;-65
2022/08/15 06:11:01;;;;;;;26.80;23.55;;;20.30;99.90;;;;;;5069965;28;20083;-67
2022/08/15 06:13:35;;;;;;;26.00;20.85;;;20.40;99.90;;;;;;5075478;28;20070;-67
2022/08/15 06:16:16;;;;;;;23.15;20.65;;;20.40;99.90;;;;;;5047332;28;20443;-67
2022/08/15 06:18:44;;;;;;;23.42;19.42;;;20.50;99.90;;;;;;5078670;28;20097;-67
2022/08/15 06:21:36;;;;;;;24.00;20.63;;;20.60;99.90;;;;;;5092035;28;20137;-67
2022/08/15 06:24:18;;;;;;;24.25;20.35;;;20.70;99.90;;;;;;5093697;28;20067;-67
2022/08/15 06:26:58;;;;;;;24.13;20.38;;;20.70;99.90;;;;;;5094326;28;20052;-67
2022/08/15 06:29:33;;;;;;;28.73;23.25;;;20.80;99.90;;;;;;5080816;28;20051;-67
2022/08/15 06:32:07;;;;;;;28.92;25.02;;;21.00;99.90;;;;;;5089939;28;20049;-67
2022/08/15 06:34:44;;;;;;;24.83;22.08;;;21.00;99.90;;;;;;5082326;28;20087;-67
2022/08/15 06:37:28;;;;;;;29.38;26.25;;;21.10;99.90;;;;;;5075516;28;20053;-67
2022/08/15 06:40:05;;;;;;;32.67;28.48;;;21.10;99.90;;;;;;5073847;28;20048;-67
2022/08/15 06:42:43;;;;;;;34.90;26.95;;;21.20;99.90;;;;;;5083121;28;20051;-67
2022/08/15 06:45:13;;;;;;;35.53;26.23;;;21.20;99.90;;;;;;5082146;28;20052;-67
2022/08/15 06:47:39;;;;;;;37.10;28.27;;;21.30;99.90;;;;;;5022413;28;20052;-68
2022/08/15 06:50:15;;;;;;;33.35;24.92;;;21.30;99.90;;;;;;5057539;28;20055;-68
2022/08/15 06:52:47;;;;;;;34.25;25.10;;;21.30;99.90;;;;;;5080354;28;20045;-68
2022/08/15 06:55:13;;;;;;;29.25;22.95;;;21.40;99.90;;;;;;5068684;28;20048;-68
2022/08/15 06:57:49;;;;;;;32.72;25.73;;;21.40;99.90;;;;;;5082985;28;20056;-68
2022/08/15 07:00:40;;;;;;;30.65;24.52;;;21.50;99.90;;;;;;5068823;28;20143;-68
2022/08/15 07:03:20;;;;;;;29.48;24.30;;;21.50;99.90;;;;;;5077307;28;20055;-68
2022/08/15 07:05:50;;;;;;;31.20;25.05;;;21.60;99.90;;;;;;5080584;28;20044;-68
2022/08/15 07:08:53;;;;;;;30.38;25.20;;;21.60;99.90;;;;;;5054492;28;20736;-68
2022/08/15 07:11:31;;;;;;;31.73;26.17;;;21.60;99.90;;;;;;5070785;28;20611;-68
2022/08/15 07:13:56;;;;;;;28.83;23.90;;;21.60;99.90;;;;;;5066889;28;20055;-68
2022/08/15 07:16:32;;;;;;;28.65;25.35;;;21.70;99.90;;;;;;5057379;28;20048;-68
2022/08/15 07:19:00;;;;;;;30.42;25.52;;;21.70;99.90;;;;;;5055247;28;20055;-67
2022/08/15 07:21:26;;;;;;;27.67;22.77;;;21.80;99.90;;;;;;5069917;28;20075;-66
2022/08/15 07:24:23;;;;;;;25.23;22.52;;;21.80;99.90;;;;;;5069485;28;20056;-67
2022/08/15 07:26:57;;;;;;;26.40;22.15;;;21.90;99.90;;;;;;5070546;28;20467;-67
2022/08/15 07:29:35;;;;;;;23.77;21.17;;;22.00;99.90;;;;;;5049777;28;20111;-67
2022/08/15 07:32:26;;;;;;;25.92;23.23;;;22.00;99.90;;;;;;5078890;28;20052;-67
2022/08/15 07:34:55;;;;;;;27.25;21.77;;;22.10;99.90;;;;;;5070876;28;20341;-67
2022/08/15 07:37:24;;;;;;;22.75;20.40;;;22.20;99.90;;;;;;5074269;28;20116;-67
2022/08/15 07:39:59;;;;;;;22.13;19.85;;;22.20;99.90;;;;;;5051505;28;20053;-68
2022/08/15 07:42:26;;;;;;;21.55;19.35;;;22.30;99.90;;;;;;5087640;28;20036;-68
2022/08/15 07:44:58;;;;;;;21.30;19.05;;;22.30;99.90;;;;;;5083674;28;20090;-66
2022/08/15 07:47:30;;;;;;;22.20;19.88;;;22.40;99.90;;;;;;5067018;28;20083;-67
2022/08/15 07:50:31;;;;;;;21.00;18.10;;;22.50;99.90;;;;;;5058032;28;20048;-65
2022/08/15 07:53:07;;;;;;;21.80;18.40;;;22.60;99.90;;;;;;5085580;28;20056;-65
2022/08/15 07:55:33;;;;;;;21.13;18.92;;;22.70;99.90;;;;;;5066698;28;20036;-65
2022/08/15 07:58:02;;;;;;;21.08;18.15;;;22.80;99.90;;;;;;5065237;28;20122;-66
2022/08/15 08:00:32;;;;;;;21.67;18.45;;;22.90;99.90;;;;;;5065841;28;20070;-65
2022/08/15 08:03:00;;;;;;;;;;;23.00;99.90;;;;;;5069442;28;20056;-66
2022/08/15 08:05:36;;;;;;;19.83;17.67;;;23.10;99.90;;;;;;5074081;28;19929;-65
2022/08/15 08:08:06;;;;;;;23.25;17.83;;;23.20;99.90;;;;;;5069309;28;20489;-66
2022/08/15 08:10:42;;;;;;;19.45;16.63;;;23.30;99.90;;;;;;5065264;28;20059;-67
2022/08/15 08:13:42;;;;;;;18.40;16.45;;;23.40;99.90;;;;;;5070092;28;20063;-66
2022/08/15 08:16:34;;;;;;;18.48;15.23;;;23.50;99.90;;;;;;5054842;28;20036;-66
2022/08/15 08:19:11;;;;;;;18.90;15.93;;;23.60;99.90;;;;;;5080821;28;20447;-66
2022/08/15 08:21:48;;;;;;;18.23;15.25;;;23.70;99.90;;;;;;5078138;28;20120;-66
2022/08/15 08:24:46;;;;;;;18.63;15.63;;;23.80;99.90;;;;;;5079989;28;20048;-66
2022/08/15 08:27:29;;;;;;;16.77;14.75;;;23.80;99.90;;;;;;5076804;28;20055;-66
2022/08/15 08:30:09;;;;;;;16.77;13.40;;;23.90;99.90;;;;;;5065065;28;20210;-66
2022/08/15 08:33:00;;;;;;;16.38;13.38;;;24.00;99.90;;;;;;5050344;28;20091;-67
2022/08/15 08:35:42;;;;;;;15.88;13.20;;;24.10;99.90;;;;;;5058057;28;20073;-66
2022/08/15 08:38:24;;;;;;;14.38;12.75;;;24.10;99.90;;;;;;5068509;28;20044;-66
2022/08/15 08:43:43;;;;;;;12.98;11.55;;;24.40;99.90;;;;;;5060370;28;20082;-66
2022/08/15 08:46:34;;;;;;;13.63;12.05;;;24.40;99.90;;;;;;5073991;28;20044;-66
2022/08/15 08:49:19;;;;;;;16.88;12.35;;;24.60;99.90;;;;;;5062407;28;20153;-66
2022/08/15 08:52:10;;;;;;;13.95;10.77;;;24.80;99.90;;;;;;5084462;28;20040;-66
2022/08/15 08:54:59;;;;;;;11.13;9.10;;;24.90;99.90;;;;;;5054316;28;20052;-66
2022/08/15 08:57:32;;;;;;;10.52;9.48;;;24.90;99.90;;;;;;5072922;28;20060;-66
2022/08/15 09:00:13;;;;;;;12.15;10.55;;;25.00;99.90;;;;;;5063560;28;20130;-66
2022/08/15 09:03:00;;;;;;;10.98;9.80;;;25.10;99.90;;;;;;5072020;28;20620;-66
2022/08/15 09:05:34;;;;;;;10.90;9.38;;;25.10;99.90;;;;;;5041329;28;20052;-66
2022/08/15 09:08:11;;;;;;;14.15;9.52;;;25.10;99.90;;;;;;5081227;28;20560;-67
2022/08/15 09:10:39;;;;;;;29.80;10.65;;;25.10;99.90;;;;;;5076928;28;20086;-67
2022/08/15 09:15:55;;;;;;;10.25;9.02;;;25.30;99.90;;;;;;5067742;28;20950;-67
2022/08/15 09:18:25;;;;;;;;;;;25.30;99.90;;;;;;5089258;28;20058;-66
2022/08/15 09:20:50;;;;;;;9.52;8.50;;;25.40;99.90;;;;;;5075035;28;19946;-66
2022/08/15 09:23:16;;;;;;;10.15;9.15;;;25.70;99.90;;;;;;5057326;28;20048;-65
2022/08/15 09:26:07;;;;;;;9.30;8.32;;;25.80;99.90;;;;;;5083656;28;20036;-66
2022/08/15 09:28:37;;;;;;;11.98;9.32;;;25.80;99.90;;;;;;5064004;28;20106;-66
2022/08/15 09:31:16;;;;;;;10.55;9.10;;;26.20;99.90;;;;;;5051598;28;20125;-66
2022/08/15 09:34:06;;;;;;;9.80;8.90;;;26.10;99.90;;;;;;5026069;28;20053;-65
2022/08/15 09:36:41;;;;;;;11.40;9.90;;;26.10;99.90;;;;;;5049395;28;20644;-66
2022/08/15 09:39:34;;;;;;;10.05;9.00;;;26.20;99.90;;;;;;5047225;28;20109;-66
2022/08/15 09:42:31;;;;;;;10.20;9.13;;;26.50;99.90;;;;;;5055521;28;20044;-66
2022/08/15 09:45:21;;;;;;;12.60;9.05;;;26.40;99.90;;;;;;5042820;28;20040;-66
2022/08/15 09:47:47;;;;;;;11.68;8.43;;;26.30;99.90;;;;;;5050060;28;20040;-66
2022/08/15 09:50:34;;;;;;;11.40;9.07;;;26.20;99.90;;;;;;5035164;28;20315;-66
2022/08/15 09:53:07;;;;;;;11.05;9.82;;;26.20;99.90;;;;;;5031415;28;20045;-66
2022/08/15 09:55:46;;;;;;;14.02;9.63;;;26.30;99.90;;;;;;5052970;28;20086;-66
2022/08/15 09:58:24;;;;;;;10.45;9.45;;;26.40;99.90;;;;;;5041859;28;20112;-66
2022/08/15 10:01:15;;;;;;;10.75;9.65;;;26.40;99.90;;;;;;5041060;28;20068;-66
2022/08/15 10:03:43;;;;;;;10.18;9.18;;;26.50;99.90;;;;;;5037708;28;20081;-66
2022/08/15 10:06:51;;;;;;;11.05;9.75;;;26.60;99.50;;;;;;5040469;28;20086;-67
2022/08/15 10:09:33;;;;;;;12.73;9.13;;;26.90;97.90;;;;;;4944610;28;20574;-66
2022/08/15 10:12:08;;;;;;;12.18;10.18;;;26.90;98.70;;;;;;4957900;28;20046;-67
2022/08/15 10:14:49;;;;;;;10.43;9.45;;;26.90;99.20;;;;;;4932911;28;20193;-66
2022/08/15 10:17:39;;;;;;;10.65;9.25;;;27.00;98.90;;;;;;4975376;28;20046;-66
2022/08/15 10:20:16;;;;;;;12.93;11.52;;;26.90;98.70;;;;;;4935650;28;20042;-67
2022/08/15 10:22:49;;;;;;;14.52;11.68;;;26.90;99.20;;;;;;4957353;28;20051;-66
2022/08/15 10:25:18;;;;;;;14.77;12.77;;;26.90;99.90;;;;;;4949805;28;20570;-66
2022/08/15 10:28:06;;;;;;;14.82;13.23;;;26.80;99.90;;;;;;4973380;28;20070;-66
2022/08/15 10:30:56;;;;;;;16.52;14.73;;;26.70;99.90;;;;;;4933599;28;20050;-65
2022/08/15 10:33:33;;;;;;;19.02;16.13;;;26.60;99.90;;;;;;4965500;28;20054;-66
2022/08/15 10:36:13;;;;;;;18.90;16.92;;;26.40;99.90;;;;;;5010234;28;20104;-68
2022/08/15 10:39:06;;;;;;;17.65;15.43;;;26.30;99.90;;;;;;4989746;28;20058;-67
2022/08/15 10:41:36;;;;;;;19.58;17.60;;;26.30;99.90;;;;;;4997992;28;20077;-67
2022/08/15 10:44:11;;;;;;;19.80;17.45;;;26.00;99.90;;;;;;4983664;28;20597;-67
2022/08/15 10:46:52;;;;;;;19.48;17.35;;;25.80;99.90;;;;;;5045202;28;20615;-67
2022/08/15 10:49:35;;;;;;;22.55;16.35;;;25.70;99.90;;;;;;5021822;28;20084;-67
2022/08/15 10:52:12;;;;;;;19.27;17.25;;;25.80;99.90;;;;;;5051508;28;20040;-67
2022/08/15 10:54:51;;;;;;;22.02;19.67;;;25.70;99.90;;;;;;5038440;28;20051;-66
2022/08/15 10:57:21;;;;;;;21.33;18.88;;;25.70;99.90;;;;;;5050840;28;20133;-66
2022/08/15 10:59:51;;;;;;;20.75;18.55;;;25.70;99.90;;;;;;5057444;28;20036;-65
2022/08/15 11:02:47;;;;;;;22.40;17.40;;;25.70;99.90;;;;;;5055252;28;20044;-65
2022/08/15 11:05:22;;;;;;;20.83;18.73;;;25.90;99.90;;;;;;5045231;28;20052;-66
2022/08/15 11:07:51;;;;;;;19.92;17.77;;;26.00;99.90;;;;;;5060829;28;20056;-66
2022/08/15 11:10:20;;;;;;;20.98;18.45;;;26.10;99.90;;;;;;5044224;28;20098;-66
2022/08/15 11:12:57;;;;;;;20.77;15.88;;;26.30;99.90;;;;;;5060254;28;20242;-66
2022/08/15 11:15:43;;;;;;;24.08;18.55;;;26.40;99.90;;;;;;5023847;28;20061;-65
2022/08/15 11:18:09;;;;;;;47.28;14.80;;;26.50;99.90;;;;;;5080666;28;20098;-66
2022/08/15 11:20:40;;;;;;;28.83;15.38;;;26.40;98.70;;;;;;5048825;28;20056;-66
2022/08/15 11:23:07;;;;;;;21.35;18.40;;;26.50;99.20;;;;;;5070738;28;20055;-66
2022/08/15 11:25:37;;;;;;;19.17;17.17;;;26.50;99.40;;;;;;5059406;28;20059;-66
2022/08/15 11:28:13;;;;;;;33.45;18.08;;;26.50;99.90;;;;;;5072194;28;20036;-66
2022/08/15 11:30:41;;;;;;;29.73;17.45;;;26.50;99.90;;;;;;5035189;28;20165;-66
2022/08/15 11:33:22;;;;;;;23.13;16.80;;;26.30;99.90;;;;;;5076943;28;20040;-66
2022/08/15 11:35:50;;;;;;;19.17;16.70;;;26.30;99.90;;;;;;5028476;28;20048;-66
2022/08/15 11:38:16;;;;;;;34.67;16.33;;;26.30;99.90;;;;;;5060204;28;20055;-64
2022/08/15 11:40:50;;;;;;;24.83;16.60;;;26.10;99.90;;;;;;5061876;28;20094;-64
2022/08/15 11:43:17;;;;;;;22.40;17.67;;;25.90;99.90;;;;;;5085825;28;20123;-65
2022/08/15 11:45:50;;;;;;;38.97;23.25;;;25.90;99.90;;;;;;5073304;28;20089;-63
2022/08/15 11:48:29;;;;;;;31.10;21.33;;;25.70;99.90;;;;;;5057282;28;20086;-64
2022/08/15 11:51:27;;;;;;;37.55;22.38;;;25.70;99.90;;;;;;5061342;28;20248;-63
2022/08/15 11:54:10;;;;;;;25.08;21.33;;;25.70;99.90;;;;;;5066008;28;20110;-64
2022/08/15 11:57:01;;;;;;;30.80;24.35;;;25.80;99.90;;;;;;5072154;28;20052;-65
2022/08/15 11:59:27;;;;;;;29.05;25.17;;;26.00;99.90;;;;;;5070067;28;20475;-65
2022/08/15 12:02:19;;;;;;;25.63;22.90;;;26.20;99.90;;;;;;5078117;28;20045;-63
2022/08/15 12:04:48;;;;;;;59.05;21.95;;;26.40;99.90;;;;;;4961128;28;20083;-64
2022/08/15 12:07:28;;;;;;;32.08;21.60;;;26.40;99.90;;;;;;4950110;28;20097;-64
2022/08/15 12:10:02;;;;;;;24.30;20.38;;;26.60;99.90;;;;;;4938127;28;20047;-64
2022/08/15 12:12:49;;;;;;;25.33;19.77;;;26.70;99.90;;;;;;4955227;28;20074;-64
2022/08/15 12:15:19;;;;;;;31.67;23.13;;;26.80;99.90;;;;;;4943034;28;20059;-64
2022/08/15 12:18:20;;;;;;;57.67;21.52;;;26.80;99.90;;;;;;4957138;28;20058;-64
2022/08/15 12:20:55;;;;;;;56.85;24.30;;;26.80;99.90;;;;;;4920018;29;20060;-64
2022/08/15 12:23:26;;;;;;;29.40;23.35;;;26.70;99.90;;;;;;4921404;29;20127;-64
2022/08/15 12:25:58;;;;;;;216.63;31.90;;;26.60;99.90;;;;;;4900293;29;20408;-64
2022/08/15 12:28:25;;;;;;;32.63;24.52;;;26.70;99.90;;;;;;4914133;29;20140;-64
2022/08/15 12:30:57;;;;;;;32.92;23.83;;;26.70;99.90;;;;;;4892030;29;20100;-64
2022/08/15 12:33:24;;;;;;;30.20;23.35;;;26.70;99.90;;;;;;4918435;29;20500;-64
2022/08/15 12:35:51;;;;;;;29.63;22.98;;;26.90;99.90;;;;;;4915108;29;20064;-64
2022/08/15 12:38:20;;;;;;;74.78;24.38;;;27.10;99.90;;;;;;4936796;29;20047;-64
2022/08/15 12:40:50;;;;;;;40.53;21.80;;;27.20;99.90;;;;;;4923315;28;20043;-64
2022/08/15 12:43:17;;;;;;;23.90;21.33;;;27.30;99.90;;;;;;4977828;28;20050;-64
2022/08/15 12:45:43;;;;;;;27.10;21.95;;;27.30;99.90;;;;;;4966447;28;20058;-64
2022/08/15 12:48:23;;;;;;;46.80;23.65;;;27.20;99.90;;;;;;4973245;28;20046;-64
2022/08/15 12:50:49;;;;;;;39.22;21.42;;;27.30;99.90;;;;;;4967179;28;20113;-64
2022/08/15 12:53:15;;;;;;;29.30;23.92;;;27.30;99.90;;;;;;4976485;28;20054;-64
2022/08/15 12:55:44;;;;;;;27.60;22.92;;;27.30;99.90;;;;;;5043364;28;20288;-64
2022/08/15 12:58:11;;;;;;;35.55;24.55;;;27.20;99.90;;;;;;5089064;28;20060;-64
2022/08/15 13:00:37;;;;;;;26.63;22.98;;;27.10;99.90;;;;;;5061890;28;20044;-64
2022/08/15 13:03:17;;;;;;;26.17;22.15;;;27.20;99.90;;;;;;5088995;28;20326;-64
2022/08/15 13:05:43;;;;;;;;;;;27.10;99.90;;;;;;5053544;28;20095;-64
2022/08/15 13:08:09;;;;;;;20.27;18.10;;;27.20;99.90;;;;;;5096304;28;19920;-65
2022/08/15 13:10:36;;;;;;;20.27;18.17;;;27.10;99.90;;;;;;5056216;28;20048;-64